sensor_id;sensor_type;location;lat;lon;timestamp;pressure;altitude;pressure_sealevel;temperature;humidity
77366;BME280;66430;50.182;11.704;2023-11-19T00:00:46;94480.20;;;6.29;43.23
77366;BME280;66430;50.182;11.704;2023-11-19T00:03:11;94467.76;;;6.43;43.63
77366;BME280;66430;50.182;11.704;2023-11-19T00:05:37;94470.84;;;6.25;43.85
77366;BME280;66430;50.182;11.704;2023-11-19T00:08:02;94461.29;;;6.28;44.00
77366;BME280;66430;50.182;11.704;2023-11-19T00:10:28;94440.35;;;6.12;44.01
77366;BME280;66430;50.182;11.704;2023-11-19T00:12:54;94444.26;;;6.24;44.09
77366;BME280;66430;50.182;11.704;2023-11-19T00:15:19;94456.51;;;6.71;43.46
77366;BME280;66430;50.182;11.704;2023-11-19T00:17:46;94471.23;;;6.50;43.89
77366;BME280;66430;50.182;11.704;2023-11-19T00:20:11;94468.71;;;6.55;43.90
77366;BME280;66430;50.182;11.704;2023-11-19T00:22:36;94464.48;;;6.45;44.08
77366;BME280;66430;50.182;11.704;2023-11-19T00:25:02;94453.12;;;6.88;43.42
77366;BME280;66430;50.182;11.704;2023-11-19T00:27:27;94467.94;;;7.06;43.15
77366;BME280;66430;50.182;11.704;2023-11-19T00:29:53;94467.02;;;6.40;44.49
77366;BME280;66430;50.182;11.704;2023-11-19T00:32:18;94459.68;;;6.72;44.11
77366;BME280;66430;50.182;11.704;2023-11-19T00:34:44;94454.16;;;6.83;43.69
77366;BME280;66430;50.182;11.704;2023-11-19T00:37:10;94440.93;;;6.96;43.56
77366;BME280;66430;50.182;11.704;2023-11-19T00:39:35;94427.16;;;7.23;43.18
77366;BME280;66430;50.182;11.704;2023-11-19T00:42:01;94427.44;;;7.12;43.40
77366;BME280;66430;50.182;11.704;2023-11-19T00:44:26;94425.29;;;6.61;43.74
77366;BME280;66430;50.182;11.704;2023-11-19T00:46:52;94420.38;;;6.89;43.88
77366;BME280;66430;50.182;11.704;2023-11-19T00:49:17;94407.30;;;7.58;42.88
77366;BME280;66430;50.182;11.704;2023-11-19T00:51:43;94408.06;;;6.98;43.23
77366;BME280;66430;50.182;11.704;2023-11-19T00:54:09;94425.52;;;7.77;42.54
77366;BME280;66430;50.182;11.704;2023-11-19T00:56:34;94419.07;;;6.87;43.70
77366;BME280;66430;50.182;11.704;2023-11-19T00:58:59;94427.65;;;7.06;43.60
77366;BME280;66430;50.182;11.704;2023-11-19T01:01:25;94442.41;;;7.56;42.89
77366;BME280;66430;50.182;11.704;2023-11-19T01:03:51;94429.43;;;7.54;42.99
77366;BME280;66430;50.182;11.704;2023-11-19T01:06:26;94424.37;;;7.32;43.34
77366;BME280;66430;50.182;11.704;2023-11-19T01:08:43;94429.29;;;6.80;43.72
77366;BME280;66430;50.182;11.704;2023-11-19T01:11:07;94429.16;;;6.88;43.56
77366;BME280;66430;50.182;11.704;2023-11-19T01:13:33;94417.10;;;7.13;43.24
77366;BME280;66430;50.182;11.704;2023-11-19T01:15:58;94413.94;;;7.26;43.26
77366;BME280;66430;50.182;11.704;2023-11-19T01:18:24;94406.27;;;7.31;43.15
77366;BME280;66430;50.182;11.704;2023-11-19T01:20:50;94392.35;;;7.38;42.80
77366;BME280;66430;50.182;11.704;2023-11-19T01:23:15;94393.55;;;7.05;43.43
77366;BME280;66430;50.182;11.704;2023-11-19T01:25:41;94392.92;;;7.26;42.88
77366;BME280;66430;50.182;11.704;2023-11-19T01:28:06;94399.81;;;7.18;43.53
77366;BME280;66430;50.182;11.704;2023-11-19T01:30:32;94405.13;;;7.09;43.58
77366;BME280;66430;50.182;11.704;2023-11-19T01:32:57;94413.22;;;6.75;44.35
77366;BME280;66430;50.182;11.704;2023-11-19T01:35:23;94417.50;;;7.83;42.97
77366;BME280;66430;50.182;11.704;2023-11-19T01:37:49;94418.35;;;8.12;42.53
77366;BME280;66430;50.182;11.704;2023-11-19T01:40:14;94410.19;;;7.70;42.73
77366;BME280;66430;50.182;11.704;2023-11-19T01:42:40;94409.93;;;8.01;42.31
77366;BME280;66430;50.182;11.704;2023-11-19T01:45:06;94411.77;;;7.76;42.21
77366;BME280;66430;50.182;11.704;2023-11-19T01:47:31;94388.81;;;7.61;42.50
77366;BME280;66430;50.182;11.704;2023-11-19T01:49:57;94380.45;;;7.31;43.41
77366;BME280;66430;50.182;11.704;2023-11-19T01:52:22;94366.64;;;6.86;44.54
77366;BME280;66430;50.182;11.704;2023-11-19T01:54:48;94354.17;;;6.79;43.79
77366;BME280;66430;50.182;11.704;2023-11-19T01:57:14;94354.90;;;7.42;43.52
77366;BME280;66430;50.182;11.704;2023-11-19T01:59:39;94356.16;;;7.20;43.49
77366;BME280;66430;50.182;11.704;2023-11-19T02:02:05;94350.96;;;7.09;43.57
77366;BME280;66430;50.182;11.704;2023-11-19T02:04:30;94342.40;;;7.22;43.47
77366;BME280;66430;50.182;11.704;2023-11-19T02:06:57;94347.50;;;6.93;44.10
77366;BME280;66430;50.182;11.704;2023-11-19T02:09:21;94346.38;;;7.23;43.51
77366;BME280;66430;50.182;11.704;2023-11-19T02:11:47;94339.78;;;7.29;43.16
77366;BME280;66430;50.182;11.704;2023-11-19T02:14:12;94340.16;;;7.43;43.02
77366;BME280;66430;50.182;11.704;2023-11-19T02:16:38;94330.00;;;7.66;42.65
77366;BME280;66430;50.182;11.704;2023-11-19T02:19:04;94324.13;;;7.78;42.78
77366;BME280;66430;50.182;11.704;2023-11-19T02:21:29;94328.20;;;7.26;43.51
77366;BME280;66430;50.182;11.704;2023-11-19T02:23:55;94324.19;;;7.78;42.56
77366;BME280;66430;50.182;11.704;2023-11-19T02:26:26;94316.45;;;7.31;43.49
77366;BME280;66430;50.182;11.704;2023-11-19T02:28:46;94307.38;;;7.16;43.37
77366;BME280;66430;50.182;11.704;2023-11-19T02:31:11;94300.65;;;7.84;42.46
77366;BME280;66430;50.182;11.704;2023-11-19T02:33:37;94290.01;;;7.43;43.42
77366;BME280;66430;50.182;11.704;2023-11-19T02:36:03;94293.02;;;7.12;44.03
77366;BME280;66430;50.182;11.704;2023-11-19T02:38:28;94285.51;;;7.28;43.22
77366;BME280;66430;50.182;11.704;2023-11-19T02:40:53;94288.61;;;7.77;42.57
77366;BME280;66430;50.182;11.704;2023-11-19T02:43:19;94288.79;;;7.84;42.50
77366;BME280;66430;50.182;11.704;2023-11-19T02:45:45;94293.66;;;6.78;43.90
77366;BME280;66430;50.182;11.704;2023-11-19T02:48:10;94285.45;;;7.99;42.49
77366;BME280;66430;50.182;11.704;2023-11-19T02:50:36;94278.02;;;7.71;42.93
77366;BME280;66430;50.182;11.704;2023-11-19T02:53:01;94278.24;;;8.33;42.39
77366;BME280;66430;50.182;11.704;2023-11-19T02:55:27;94286.83;;;7.94;42.52
77366;BME280;66430;50.182;11.704;2023-11-19T02:57:52;94281.50;;;8.20;42.20
77366;BME280;66430;50.182;11.704;2023-11-19T03:00:19;94270.93;;;8.01;42.33
77366;BME280;66430;50.182;11.704;2023-11-19T03:02:44;94269.77;;;8.10;42.42
77366;BME280;66430;50.182;11.704;2023-11-19T03:05:09;94265.80;;;7.74;42.70
77366;BME280;66430;50.182;11.704;2023-11-19T03:07:35;94270.83;;;7.88;42.81
77366;BME280;66430;50.182;11.704;2023-11-19T03:10:00;94269.34;;;7.75;43.05
77366;BME280;66430;50.182;11.704;2023-11-19T03:12:26;94265.59;;;8.10;42.58
77366;BME280;66430;50.182;11.704;2023-11-19T03:14:51;94268.55;;;7.77;43.16
77366;BME280;66430;50.182;11.704;2023-11-19T03:17:17;94263.67;;;7.90;42.65
77366;BME280;66430;50.182;11.704;2023-11-19T03:19:42;94258.96;;;8.13;42.58
77366;BME280;66430;50.182;11.704;2023-11-19T03:22:08;94256.27;;;7.41;43.49
77366;BME280;66430;50.182;11.704;2023-11-19T03:24:34;94255.88;;;8.40;42.22
77366;BME280;66430;50.182;11.704;2023-11-19T03:26:59;94248.84;;;8.14;42.67
77366;BME280;66430;50.182;11.704;2023-11-19T03:29:25;94241.29;;;8.07;42.26
77366;BME280;66430;50.182;11.704;2023-11-19T03:31:50;94237.79;;;7.33;43.42
77366;BME280;66430;50.182;11.704;2023-11-19T03:34:16;94234.17;;;8.29;42.90
77366;BME280;66430;50.182;11.704;2023-11-19T03:36:42;94233.71;;;8.37;42.37
77366;BME280;66430;50.182;11.704;2023-11-19T03:39:07;94229.84;;;7.83;43.13
77366;BME280;66430;50.182;11.704;2023-11-19T03:41:32;94213.51;;;8.06;43.39
77366;BME280;66430;50.182;11.704;2023-11-19T03:44:00;94209.49;;;7.85;43.67
77366;BME280;66430;50.182;11.704;2023-11-19T03:46:23;94206.72;;;7.95;43.19
77366;BME280;66430;50.182;11.704;2023-11-19T03:48:52;94207.76;;;7.52;43.92
77366;BME280;66430;50.182;11.704;2023-11-19T03:51:15;94209.05;;;8.03;43.48
77366;BME280;66430;50.182;11.704;2023-11-19T03:53:41;94208.04;;;8.13;43.01
77366;BME280;66430;50.182;11.704;2023-11-19T03:56:07;94198.31;;;8.04;43.46
77366;BME280;66430;50.182;11.704;2023-11-19T03:58:31;94200.01;;;7.75;44.16
77366;BME280;66430;50.182;11.704;2023-11-19T04:00:57;94199.46;;;7.84;44.01
77366;BME280;66430;50.182;11.704;2023-11-19T04:03:22;94195.06;;;7.94;43.93
77366;BME280;66430;50.182;11.704;2023-11-19T04:05:48;94185.34;;;8.03;43.65
77366;BME280;66430;50.182;11.704;2023-11-19T04:08:13;94193.76;;;7.57;44.20
77366;BME280;66430;50.182;11.704;2023-11-19T04:10:39;94204.88;;;7.84;43.98
77366;BME280;66430;50.182;11.704;2023-11-19T04:13:05;94198.24;;;8.13;43.66
77366;BME280;66430;50.182;11.704;2023-11-19T04:15:30;94198.51;;;8.47;43.16
77366;BME280;66430;50.182;11.704;2023-11-19T04:17:56;94186.68;;;8.48;42.89
77366;BME280;66430;50.182;11.704;2023-11-19T04:20:21;94184.48;;;8.66;43.03
77366;BME280;66430;50.182;11.704;2023-11-19T04:22:47;94180.93;;;8.35;42.67
77366;BME280;66430;50.182;11.704;2023-11-19T04:25:12;94194.23;;;9.01;42.50
77366;BME280;66430;50.182;11.704;2023-11-19T04:27:38;94200.44;;;8.44;42.75
77366;BME280;66430;50.182;11.704;2023-11-19T04:30:04;94190.32;;;8.14;43.01
77366;BME280;66430;50.182;11.704;2023-11-19T04:32:29;94183.60;;;8.36;43.29
77366;BME280;66430;50.182;11.704;2023-11-19T04:34:54;94179.40;;;8.31;43.36
77366;BME280;66430;50.182;11.704;2023-11-19T04:37:20;94183.09;;;8.16;43.79
77366;BME280;66430;50.182;11.704;2023-11-19T04:39:46;94187.64;;;7.96;43.55
77366;BME280;66430;50.182;11.704;2023-11-19T04:42:11;94184.22;;;8.44;42.96
77366;BME280;66430;50.182;11.704;2023-11-19T04:44:37;94190.31;;;8.61;43.11
77366;BME280;66430;50.182;11.704;2023-11-19T04:47:02;94188.31;;;8.37;43.03
77366;BME280;66430;50.182;11.704;2023-11-19T04:49:28;94193.43;;;8.12;44.18
77366;BME280;66430;50.182;11.704;2023-11-19T04:51:53;94180.06;;;8.57;43.38
77366;BME280;66430;50.182;11.704;2023-11-19T04:54:19;94172.63;;;8.95;43.21
77366;BME280;66430;50.182;11.704;2023-11-19T04:56:46;94172.66;;;8.11;43.90
77366;BME280;66430;50.182;11.704;2023-11-19T04:59:10;94164.98;;;8.59;43.33
77366;BME280;66430;50.182;11.704;2023-11-19T05:01:35;94169.58;;;8.70;42.93
77366;BME280;66430;50.182;11.704;2023-11-19T05:04:01;94175.61;;;8.86;42.85
77366;BME280;66430;50.182;11.704;2023-11-19T05:06:27;94182.10;;;8.86;42.75
77366;BME280;66430;50.182;11.704;2023-11-19T05:08:52;94184.09;;;8.90;42.77
77366;BME280;66430;50.182;11.704;2023-11-19T05:11:18;94169.96;;;8.69;43.14
77366;BME280;66430;50.182;11.704;2023-11-19T05:13:43;94168.69;;;8.73;43.73
77366;BME280;66430;50.182;11.704;2023-11-19T05:16:09;94161.68;;;8.80;43.83
77366;BME280;66430;50.182;11.704;2023-11-19T05:18:34;94156.46;;;8.64;43.51
77366;BME280;66430;50.182;11.704;2023-11-19T05:21:00;94147.48;;;8.09;44.51
77366;BME280;66430;50.182;11.704;2023-11-19T05:23:25;94139.39;;;8.36;43.81
77366;BME280;66430;50.182;11.704;2023-11-19T05:25:51;94135.33;;;8.44;44.34
77366;BME280;66430;50.182;11.704;2023-11-19T05:28:16;94121.49;;;8.70;43.94
77366;BME280;66430;50.182;11.704;2023-11-19T05:30:42;94131.32;;;8.03;44.87
77366;BME280;66430;50.182;11.704;2023-11-19T05:33:07;94128.96;;;8.81;44.07
77366;BME280;66430;50.182;11.704;2023-11-19T05:35:33;94133.45;;;9.04;43.61
77366;BME280;66430;50.182;11.704;2023-11-19T05:37:58;94139.67;;;8.58;43.69
77366;BME280;66430;50.182;11.704;2023-11-19T05:40:24;94145.02;;;9.00;43.32
77366;BME280;66430;50.182;11.704;2023-11-19T05:42:49;94141.65;;;8.98;42.87
77366;BME280;66430;50.182;11.704;2023-11-19T05:45:15;94149.23;;;8.92;43.42
77366;BME280;66430;50.182;11.704;2023-11-19T05:47:42;94155.45;;;9.10;43.06
77366;BME280;66430;50.182;11.704;2023-11-19T05:50:07;94157.91;;;8.81;43.32
77366;BME280;66430;50.182;11.704;2023-11-19T05:52:32;94152.69;;;8.58;43.79
77366;BME280;66430;50.182;11.704;2023-11-19T05:54:57;94155.51;;;9.26;42.86
77366;BME280;66430;50.182;11.704;2023-11-19T05:57:23;94151.97;;;9.29;42.44
77366;BME280;66430;50.182;11.704;2023-11-19T05:59:48;94143.01;;;9.19;42.78
77366;BME280;66430;50.182;11.704;2023-11-19T06:02:14;94143.17;;;9.29;43.01
77366;BME280;66430;50.182;11.704;2023-11-19T06:04:39;94139.95;;;9.46;42.46
77366;BME280;66430;50.182;11.704;2023-11-19T06:07:05;94132.59;;;9.29;43.03
77366;BME280;66430;50.182;11.704;2023-11-19T06:09:30;94141.92;;;9.23;43.14
77366;BME280;66430;50.182;11.704;2023-11-19T06:11:56;94146.02;;;9.40;42.98
77366;BME280;66430;50.182;11.704;2023-11-19T06:14:21;94149.71;;;9.19;43.01
77366;BME280;66430;50.182;11.704;2023-11-19T06:16:47;94149.57;;;9.49;42.78
77366;BME280;66430;50.182;11.704;2023-11-19T06:19:12;94149.27;;;8.81;44.04
77366;BME280;66430;50.182;11.704;2023-11-19T06:21:38;94145.09;;;9.06;43.63
77366;BME280;66430;50.182;11.704;2023-11-19T06:24:04;94144.65;;;9.16;43.46
77366;BME280;66430;50.182;11.704;2023-11-19T06:26:29;94139.99;;;9.10;43.73
77366;BME280;66430;50.182;11.704;2023-11-19T06:28:55;94143.94;;;9.40;43.29
77366;BME280;66430;50.182;11.704;2023-11-19T06:31:20;94143.58;;;9.53;43.17
77366;BME280;66430;50.182;11.704;2023-11-19T06:33:47;94140.48;;;9.41;43.62
77366;BME280;66430;50.182;11.704;2023-11-19T06:36:13;94135.72;;;9.54;43.25
77366;BME280;66430;50.182;11.704;2023-11-19T06:38:37;94137.73;;;9.54;43.16
77366;BME280;66430;50.182;11.704;2023-11-19T06:41:02;94147.68;;;9.47;43.34
77366;BME280;66430;50.182;11.704;2023-11-19T06:43:28;94155.46;;;9.78;43.24
77366;BME280;66430;50.182;11.704;2023-11-19T06:45:53;94149.62;;;9.77;42.91
77366;BME280;66430;50.182;11.704;2023-11-19T06:48:19;94148.49;;;10.15;42.76
77366;BME280;66430;50.182;11.704;2023-11-19T06:50:44;94149.77;;;9.76;42.94
77366;BME280;66430;50.182;11.704;2023-11-19T06:53:10;94149.87;;;9.63;43.12
77366;BME280;66430;50.182;11.704;2023-11-19T06:55:35;94152.25;;;9.74;42.72
77366;BME280;66430;50.182;11.704;2023-11-19T06:58:01;94150.35;;;9.90;43.04
77366;BME280;66430;50.182;11.704;2023-11-19T07:00:26;94152.75;;;9.72;43.11
77366;BME280;66430;50.182;11.704;2023-11-19T07:02:52;94153.85;;;9.93;42.94
77366;BME280;66430;50.182;11.704;2023-11-19T07:05:17;94151.37;;;9.97;43.23
77366;BME280;66430;50.182;11.704;2023-11-19T07:07:43;94148.75;;;9.73;43.75
77366;BME280;66430;50.182;11.704;2023-11-19T07:10:08;94148.53;;;9.75;44.23
77366;BME280;66430;50.182;11.704;2023-11-19T07:12:34;94139.83;;;9.87;43.94
77366;BME280;66430;50.182;11.704;2023-11-19T07:14:59;94142.23;;;9.32;44.45
77366;BME280;66430;50.182;11.704;2023-11-19T07:17:25;94138.03;;;9.23;45.09
77366;BME280;66430;50.182;11.704;2023-11-19T07:19:50;94139.71;;;9.93;43.75
77366;BME280;66430;50.182;11.704;2023-11-19T07:22:16;94139.78;;;9.85;44.49
77366;BME280;66430;50.182;11.704;2023-11-19T07:24:42;94138.72;;;9.71;44.19
77366;BME280;66430;50.182;11.704;2023-11-19T07:27:07;94136.68;;;9.57;44.62
77366;BME280;66430;50.182;11.704;2023-11-19T07:29:32;94144.09;;;9.71;44.07
77366;BME280;66430;50.182;11.704;2023-11-19T07:31:58;94148.51;;;10.26;43.83
77366;BME280;66430;50.182;11.704;2023-11-19T07:34:24;94150.46;;;10.30;43.72
77366;BME280;66430;50.182;11.704;2023-11-19T07:36:49;94151.68;;;9.54;44.49
77366;BME280;66430;50.182;11.704;2023-11-19T07:39:14;94149.38;;;10.01;44.22
77366;BME280;66430;50.182;11.704;2023-11-19T07:41:40;94148.98;;;10.18;44.15
77366;BME280;66430;50.182;11.704;2023-11-19T07:44:05;94151.59;;;9.72;44.04
77366;BME280;66430;50.182;11.704;2023-11-19T07:46:31;94155.90;;;10.19;43.81
77366;BME280;66430;50.182;11.704;2023-11-19T07:48:56;94152.98;;;10.57;43.27
77366;BME280;66430;50.182;11.704;2023-11-19T07:51:22;94157.36;;;10.51;43.08
77366;BME280;66430;50.182;11.704;2023-11-19T07:53:47;94151.62;;;10.52;43.30
77366;BME280;66430;50.182;11.704;2023-11-19T07:56:13;94158.34;;;10.71;43.32
77366;BME280;66430;50.182;11.704;2023-11-19T07:58:38;94159.20;;;10.28;43.91
77366;BME280;66430;50.182;11.704;2023-11-19T08:01:05;94159.03;;;10.60;43.68
77366;BME280;66430;50.182;11.704;2023-11-19T08:03:29;94158.66;;;10.71;43.34
77366;BME280;66430;50.182;11.704;2023-11-19T08:05:56;94158.88;;;10.54;43.66
77366;BME280;66430;50.182;11.704;2023-11-19T08:08:20;94158.79;;;10.40;43.99
77366;BME280;66430;50.182;11.704;2023-11-19T08:10:46;94164.70;;;10.53;43.50
77366;BME280;66430;50.182;11.704;2023-11-19T08:13:12;94170.70;;;11.05;43.11
77366;BME280;66430;50.182;11.704;2023-11-19T08:15:37;94170.60;;;10.63;44.21
77366;BME280;66430;50.182;11.704;2023-11-19T08:18:03;94170.32;;;10.39;44.47
77366;BME280;66430;50.182;11.704;2023-11-19T08:20:28;94168.49;;;10.28;44.32
77366;BME280;66430;50.182;11.704;2023-11-19T08:22:53;94169.49;;;10.43;44.12
77366;BME280;66430;50.182;11.704;2023-11-19T08:25:19;94173.41;;;10.81;43.70
77366;BME280;66430;50.182;11.704;2023-11-19T08:27:44;94171.43;;;10.50;44.33
77366;BME280;66430;50.182;11.704;2023-11-19T08:30:11;94164.19;;;10.95;44.11
77366;BME280;66430;50.182;11.704;2023-11-19T08:32:36;94163.56;;;10.49;44.22
77366;BME280;66430;50.182;11.704;2023-11-19T08:35:01;94157.62;;;10.94;44.06
77366;BME280;66430;50.182;11.704;2023-11-19T08:37:26;94163.91;;;11.22;44.02
77366;BME280;66430;50.182;11.704;2023-11-19T08:39:52;94160.85;;;11.42;43.88
77366;BME280;66430;50.182;11.704;2023-11-19T08:42:18;94166.19;;;11.14;44.59
77366;BME280;66430;50.182;11.704;2023-11-19T08:44:43;94163.94;;;11.03;44.52
77366;BME280;66430;50.182;11.704;2023-11-19T08:47:09;94166.83;;;11.20;44.24
77366;BME280;66430;50.182;11.704;2023-11-19T08:49:34;94172.90;;;11.17;44.95
77366;BME280;66430;50.182;11.704;2023-11-19T08:51:59;94166.65;;;10.34;45.76
77366;BME280;66430;50.182;11.704;2023-11-19T08:54:25;94160.08;;;10.13;46.60
77366;BME280;66430;50.182;11.704;2023-11-19T08:56:50;94162.15;;;10.87;44.97
77366;BME280;66430;50.182;11.704;2023-11-19T08:59:16;94160.28;;;11.10;45.02
77366;BME280;66430;50.182;11.704;2023-11-19T09:01:42;94164.30;;;11.02;44.93
77366;BME280;66430;50.182;11.704;2023-11-19T09:04:07;94159.64;;;11.34;44.69
77366;BME280;66430;50.182;11.704;2023-11-19T09:06:32;94160.85;;;10.77;46.29
77366;BME280;66430;50.182;11.704;2023-11-19T09:08:58;94166.25;;;10.85;46.14
77366;BME280;66430;50.182;11.704;2023-11-19T09:11:23;94171.11;;;11.09;45.72
77366;BME280;66430;50.182;11.704;2023-11-19T09:13:49;94167.59;;;10.92;46.19
77366;BME280;66430;50.182;11.704;2023-11-19T09:16:14;94174.44;;;10.90;46.07
77366;BME280;66430;50.182;11.704;2023-11-19T09:18:40;94174.81;;;11.03;46.37
77366;BME280;66430;50.182;11.704;2023-11-19T09:21:06;94170.86;;;11.18;45.78
77366;BME280;66430;50.182;11.704;2023-11-19T09:23:31;94173.25;;;11.37;45.95
77366;BME280;66430;50.182;11.704;2023-11-19T09:25:56;94169.80;;;11.66;45.46
77366;BME280;66430;50.182;11.704;2023-11-19T09:28:22;94171.58;;;11.54;45.84
77366;BME280;66430;50.182;11.704;2023-11-19T09:30:47;94171.83;;;11.19;46.75
77366;BME280;66430;50.182;11.704;2023-11-19T09:33:13;94161.32;;;11.33;46.34
77366;BME280;66430;50.182;11.704;2023-11-19T09:35:38;94165.31;;;11.50;46.67
77366;BME280;66430;50.182;11.704;2023-11-19T09:38:04;94157.37;;;11.28;46.53
77366;BME280;66430;50.182;11.704;2023-11-19T09:40:29;94160.87;;;11.94;45.79
77366;BME280;66430;50.182;11.704;2023-11-19T09:42:55;94163.48;;;12.24;45.51
77366;BME280;66430;50.182;11.704;2023-11-19T09:45:21;94160.32;;;12.06;45.82
77366;BME280;66430;50.182;11.704;2023-11-19T09:47:46;94153.47;;;11.74;46.23
77366;BME280;66430;50.182;11.704;2023-11-19T09:50:14;94141.12;;;11.53;46.20
77366;BME280;66430;50.182;11.704;2023-11-19T09:52:36;94146.21;;;11.86;45.61
77366;BME280;66430;50.182;11.704;2023-11-19T09:55:02;94141.12;;;11.90;45.50
77366;BME280;66430;50.182;11.704;2023-11-19T09:57:29;94138.65;;;12.30;45.31
77366;BME280;66430;50.182;11.704;2023-11-19T09:59:54;94138.01;;;12.13;45.69
77366;BME280;66430;50.182;11.704;2023-11-19T10:02:19;94134.87;;;12.41;45.85
77366;BME280;66430;50.182;11.704;2023-11-19T10:04:45;94135.87;;;12.25;45.65
77366;BME280;66430;50.182;11.704;2023-11-19T10:07:09;94128.89;;;12.16;45.72
77366;BME280;66430;50.182;11.704;2023-11-19T10:09:35;94128.96;;;12.39;45.53
77366;BME280;66430;50.182;11.704;2023-11-19T10:12:00;94130.37;;;12.40;45.65
77366;BME280;66430;50.182;11.704;2023-11-19T10:14:26;94127.59;;;12.24;45.38
77366;BME280;66430;50.182;11.704;2023-11-19T10:16:51;94116.34;;;12.41;45.19
77366;BME280;66430;50.182;11.704;2023-11-19T10:19:19;94122.03;;;12.23;45.87
77366;BME280;66430;50.182;11.704;2023-11-19T10:21:42;94126.85;;;12.25;45.81
77366;BME280;66430;50.182;11.704;2023-11-19T10:24:07;94132.31;;;12.39;45.10
77366;BME280;66430;50.182;11.704;2023-11-19T10:26:33;94129.42;;;12.45;45.09
77366;BME280;66430;50.182;11.704;2023-11-19T10:28:58;94123.58;;;12.05;45.51
77366;BME280;66430;50.182;11.704;2023-11-19T10:31:24;94126.68;;;12.32;45.56
77366;BME280;66430;50.182;11.704;2023-11-19T10:33:49;94122.21;;;12.26;45.23
77366;BME280;66430;50.182;11.704;2023-11-19T10:36:15;94117.30;;;12.05;45.67
77366;BME280;66430;50.182;11.704;2023-11-19T10:38:40;94118.21;;;12.50;45.07
77366;BME280;66430;50.182;11.704;2023-11-19T10:41:05;94117.76;;;12.25;45.40
77366;BME280;66430;50.182;11.704;2023-11-19T10:43:31;94120.68;;;12.63;45.01
77366;BME280;66430;50.182;11.704;2023-11-19T10:48:22;94133.15;;;12.42;45.46
77366;BME280;66430;50.182;11.704;2023-11-19T10:50:53;94120.92;;;12.90;44.18
77366;BME280;66430;50.182;11.704;2023-11-19T10:53:13;94120.47;;;13.55;43.42
77366;BME280;66430;50.182;11.704;2023-11-19T10:55:38;94126.58;;;13.28;44.34
77366;BME280;66430;50.182;11.704;2023-11-19T10:58:04;94122.98;;;12.89;44.36
77366;BME280;66430;50.182;11.704;2023-11-19T11:00:38;94109.81;;;13.04;44.46
77366;BME280;66430;50.182;11.704;2023-11-19T11:02:56;94109.62;;;12.96;44.74
77366;BME280;66430;50.182;11.704;2023-11-19T11:05:22;94105.76;;;12.71;44.41
77366;BME280;66430;50.182;11.704;2023-11-19T11:07:45;94108.55;;;12.37;44.51
77366;BME280;66430;50.182;11.704;2023-11-19T11:10:12;94108.21;;;12.51;44.46
77366;BME280;66430;50.182;11.704;2023-11-19T11:12:37;94111.92;;;12.95;43.76
77366;BME280;66430;50.182;11.704;2023-11-19T11:15:03;94111.10;;;12.50;44.01
77366;BME280;66430;50.182;11.704;2023-11-19T11:17:28;94113.13;;;12.65;44.30
77366;BME280;66430;50.182;11.704;2023-11-19T11:19:52;94106.68;;;12.82;44.05
77366;BME280;66430;50.182;11.704;2023-11-19T11:22:18;94112.82;;;12.97;43.95
77366;BME280;66430;50.182;11.704;2023-11-19T11:24:58;94106.72;;;12.82;44.20
77366;BME280;66430;50.182;11.704;2023-11-19T11:27:29;94105.81;;;12.96;44.16
77366;BME280;66430;50.182;11.704;2023-11-19T11:29:41;94110.46;;;12.83;44.12
77366;BME280;66430;50.182;11.704;2023-11-19T11:32:08;94115.48;;;12.80;44.29
77366;BME280;66430;50.182;11.704;2023-11-19T11:34:41;94111.53;;;12.06;45.16
77366;BME280;66430;50.182;11.704;2023-11-19T11:36:57;94105.20;;;12.82;44.19
77366;BME280;66430;50.182;11.704;2023-11-19T11:39:16;94107.09;;;12.55;44.32
77366;BME280;66430;50.182;11.704;2023-11-19T11:41:41;94108.81;;;12.36;45.16
77366;BME280;66430;50.182;11.704;2023-11-19T11:44:07;94109.03;;;12.78;44.65
77366;BME280;66430;50.182;11.704;2023-11-19T11:48:58;94109.57;;;13.09;43.96
77366;BME280;66430;50.182;11.704;2023-11-19T11:53:48;94107.74;;;12.92;44.06
77366;BME280;66430;50.182;11.704;2023-11-19T11:56:14;94119.12;;;13.32;44.20
77366;BME280;66430;50.182;11.704;2023-11-19T11:58:41;94106.93;;;13.30;44.16
77366;BME280;66430;50.182;11.704;2023-11-19T12:01:05;94112.06;;;13.59;43.50
77366;BME280;66430;50.182;11.704;2023-11-19T12:03:30;94107.03;;;12.94;44.02
77366;BME280;66430;50.182;11.704;2023-11-19T12:05:55;94105.35;;;12.55;44.25
77366;BME280;66430;50.182;11.704;2023-11-19T12:08:25;94102.65;;;12.78;44.19
77366;BME280;66430;50.182;11.704;2023-11-19T12:10:47;94106.63;;;12.93;44.87
77366;BME280;66430;50.182;11.704;2023-11-19T12:13:12;94108.46;;;12.59;44.66
77366;BME280;66430;50.182;11.704;2023-11-19T12:18:02;94092.51;;;12.66;44.20
77366;BME280;66430;50.182;11.704;2023-11-19T12:20:28;94095.53;;;12.82;43.97
77366;BME280;66430;50.182;11.704;2023-11-19T12:22:54;94097.45;;;13.02;43.39
77366;BME280;66430;50.182;11.704;2023-11-19T12:25:19;94105.71;;;12.92;43.34
77366;BME280;66430;50.182;11.704;2023-11-19T12:27:46;94099.69;;;12.91;43.52
77366;BME280;66430;50.182;11.704;2023-11-19T12:30:10;94096.74;;;13.28;43.49
77366;BME280;66430;50.182;11.704;2023-11-19T12:32:39;94095.01;;;13.05;43.68
77366;BME280;66430;50.182;11.704;2023-11-19T12:35:00;94093.52;;;13.04;43.59
77366;BME280;66430;50.182;11.704;2023-11-19T12:37:25;94094.18;;;13.20;42.73
77366;BME280;66430;50.182;11.704;2023-11-19T12:39:51;94096.75;;;13.23;43.09
77366;BME280;66430;50.182;11.704;2023-11-19T12:42:17;94089.20;;;12.86;43.43
77366;BME280;66430;50.182;11.704;2023-11-19T12:44:55;94080.82;;;13.45;43.78
77366;BME280;66430;50.182;11.704;2023-11-19T12:47:07;94082.60;;;13.33;42.80
77366;BME280;66430;50.182;11.704;2023-11-19T12:49:33;94084.17;;;13.29;43.17
77366;BME280;66430;50.182;11.704;2023-11-19T12:51:58;94081.10;;;13.70;43.06
77366;BME280;66430;50.182;11.704;2023-11-19T12:54:32;94079.27;;;14.03;42.64